createdAt,value
2023-01-19T00:01:09.384Z,3.00
2023-01-19T00:03:37.368Z,3.00
2023-01-19T00:06:06.601Z,3.00
2023-01-19T00:08:35.102Z,3.10
2023-01-19T00:11:02.794Z,3.00
2023-01-19T00:13:30.037Z,3.00
2023-01-19T00:15:57.642Z,3.00
2023-01-19T00:18:25.955Z,3.00
2023-01-19T00:20:53.494Z,3.00
2023-01-19T00:23:21.345Z,3.00
2023-01-19T00:25:49.347Z,3.00
2023-01-19T00:28:18.725Z,3.00
2023-01-19T00:30:45.945Z,3.00
2023-01-19T00:33:14.688Z,3.00
2023-01-19T00:35:42.895Z,3.00
2023-01-19T00:38:11.721Z,3.00
2023-01-19T00:40:39.363Z,3.00
2023-01-19T00:43:06.702Z,3.00
2023-01-19T00:45:34.404Z,3.00
2023-01-19T00:48:01.795Z,2.90
2023-01-19T00:50:30.887Z,2.90
2023-01-19T00:53:01.679Z,2.90
2023-01-19T00:55:31.775Z,2.90
2023-01-19T00:57:59.275Z,2.90
2023-01-19T01:00:26.948Z,3.00
2023-01-19T01:02:54.749Z,3.00
2023-01-19T01:05:22.620Z,3.00
2023-01-19T01:07:50.872Z,3.00
2023-01-19T01:10:20.174Z,3.00
2023-01-19T01:12:56.051Z,2.90
2023-01-19T01:15:35.739Z,3.00
2023-01-19T01:18:03.592Z,3.00
2023-01-19T01:20:31.350Z,3.00
2023-01-19T01:22:59.435Z,3.00
2023-01-19T01:25:28.890Z,2.90
2023-01-19T01:27:56.309Z,2.90
2023-01-19T01:30:24.263Z,2.90
2023-01-19T01:32:51.642Z,2.90
2023-01-19T01:35:19.499Z,2.90
2023-01-19T01:37:46.811Z,2.90
2023-01-19T01:40:17.593Z,2.80
2023-01-19T01:42:45.881Z,2.80
2023-01-19T01:45:34.714Z,2.70
2023-01-19T01:48:16.709Z,2.60
2023-01-19T01:51:15.937Z,2.40
2023-01-19T01:53:47.929Z,2.30
2023-01-19T01:56:21.803Z,2.30
2023-01-19T01:58:49.977Z,2.10
2023-01-19T02:01:37.367Z,2.10
2023-01-19T02:04:05.893Z,2.00
2023-01-19T02:06:34.270Z,2.00
2023-01-19T02:09:27.364Z,1.90
2023-01-19T02:12:15.454Z,1.90
2023-01-19T02:14:42.860Z,1.80
2023-01-19T02:17:10.125Z,1.80
2023-01-19T02:19:43.117Z,1.80
2023-01-19T02:22:18.172Z,1.80
2023-01-19T02:24:45.822Z,1.70
2023-01-19T02:27:13.506Z,1.70
2023-01-19T02:29:41.063Z,1.70
2023-01-19T02:32:09.267Z,1.60
2023-01-19T02:34:36.626Z,1.60
2023-01-19T02:37:10.256Z,1.70
2023-01-19T02:39:45.449Z,1.70
2023-01-19T02:42:20.437Z,1.70
2023-01-19T02:44:51.072Z,1.60
2023-01-19T02:47:18.667Z,1.60
2023-01-19T02:49:54.617Z,1.60
2023-01-19T02:52:23.026Z,1.50
2023-01-19T02:55:02.888Z,1.50
2023-01-19T02:57:50.372Z,1.50
2023-01-19T03:00:44.643Z,1.50
2023-01-19T03:03:30.977Z,1.50
2023-01-19T03:06:03.817Z,1.40
2023-01-19T03:09:02.820Z,1.40
2023-01-19T03:11:38.733Z,1.40
2023-01-19T03:14:19.697Z,1.40
2023-01-19T03:16:55.404Z,1.40
2023-01-19T03:19:28.370Z,1.40
2023-01-19T03:22:00.376Z,1.40
2023-01-19T03:24:34.029Z,1.40
2023-01-19T03:27:06.344Z,1.40
2023-01-19T03:29:37.269Z,1.40
2023-01-19T03:32:10.670Z,1.40
2023-01-19T03:34:39.805Z,1.40
2023-01-19T03:37:10.436Z,1.40
2023-01-19T03:39:38.573Z,1.40
2023-01-19T03:42:11.035Z,1.40
2023-01-19T03:44:40.585Z,1.40
2023-01-19T03:47:10.991Z,1.40
2023-01-19T03:49:41.934Z,1.40
2023-01-19T03:52:10.075Z,1.40
2023-01-19T03:54:37.855Z,1.50
2023-01-19T03:57:05.647Z,1.40
2023-01-19T03:59:33.048Z,1.40
2023-01-19T04:02:00.953Z,1.40
2023-01-19T04:04:28.779Z,1.40
2023-01-19T04:06:56.110Z,1.40
2023-01-19T04:09:23.685Z,1.40
2023-01-19T04:11:51.597Z,1.40
2023-01-19T04:14:19.667Z,1.40
2023-01-19T04:16:46.830Z,1.40
2023-01-19T04:19:14.389Z,1.30
2023-01-19T04:21:41.531Z,1.30
2023-01-19T04:24:10.335Z,1.30
2023-01-19T04:26:37.593Z,1.30
2023-01-19T04:29:05.690Z,1.30
2023-01-19T04:31:33.239Z,1.30
2023-01-19T04:34:00.757Z,1.30
2023-01-19T04:36:28.657Z,1.30
2023-01-19T04:38:55.906Z,1.30
2023-01-19T04:41:23.118Z,1.40
2023-01-19T04:43:50.616Z,1.30
2023-01-19T04:46:17.886Z,1.30
2023-01-19T04:48:45.539Z,1.30
2023-01-19T04:51:12.812Z,1.30
2023-01-19T04:53:40.246Z,1.30
2023-01-19T04:56:07.734Z,1.30
2023-01-19T04:58:35.615Z,1.40
2023-01-19T05:01:07.064Z,1.30
2023-01-19T05:03:34.705Z,1.30
2023-01-19T05:06:02.036Z,1.30
2023-01-19T05:08:29.290Z,1.30
2023-01-19T05:10:57.707Z,1.30
2023-01-19T05:13:25.426Z,1.30
2023-01-19T05:15:52.860Z,1.30
2023-01-19T05:18:20.335Z,1.30
2023-01-19T05:20:47.868Z,1.30
2023-01-19T05:23:15.091Z,1.40
2023-01-19T05:25:43.571Z,1.40
2023-01-19T05:28:11.624Z,1.30
2023-01-19T05:30:39.319Z,1.30
2023-01-19T05:33:06.642Z,1.30
2023-01-19T05:35:36.341Z,1.20
2023-01-19T05:38:04.508Z,1.20
2023-01-19T05:40:31.910Z,1.20
2023-01-19T05:43:01.668Z,1.20
2023-01-19T05:45:29.494Z,1.20
2023-01-19T05:47:57.361Z,1.20
2023-01-19T05:50:25.567Z,1.20
2023-01-19T05:52:54.526Z,1.30
2023-01-19T05:55:22.286Z,1.20
2023-01-19T05:57:49.912Z,1.20
2023-01-19T06:00:17.279Z,1.20
2023-01-19T06:02:45.297Z,1.20
2023-01-19T06:05:12.693Z,1.20
2023-01-19T06:07:40.197Z,1.30
2023-01-19T06:10:08.291Z,1.20
2023-01-19T06:12:35.665Z,1.30
2023-01-19T06:15:03.503Z,1.20
2023-01-19T06:17:32.989Z,1.20
2023-01-19T06:20:00.656Z,1.20
2023-01-19T06:22:28.058Z,1.20
2023-01-19T06:24:55.553Z,1.20
2023-01-19T06:27:22.874Z,1.20
2023-01-19T06:29:50.574Z,1.20
2023-01-19T06:32:17.731Z,1.20
2023-01-19T06:34:46.655Z,1.20
2023-01-19T06:37:15.965Z,1.20
2023-01-19T06:39:45.634Z,1.20
2023-01-19T06:42:13.009Z,1.30
2023-01-19T06:44:47.440Z,1.30
2023-01-19T06:47:16.399Z,1.30
2023-01-19T06:49:44.195Z,1.30
2023-01-19T06:52:16.199Z,1.30
2023-01-19T06:54:45.295Z,1.30
2023-01-19T06:57:13.509Z,1.30
2023-01-19T06:59:41.379Z,1.20
2023-01-19T07:02:26.411Z,1.20
2023-01-19T07:04:56.398Z,1.20
2023-01-19T07:07:23.704Z,1.20
2023-01-19T07:09:53.782Z,1.20
2023-01-19T07:12:23.069Z,1.20
2023-01-19T07:14:51.561Z,1.20
2023-01-19T07:17:19.913Z,1.20
2023-01-19T07:19:47.211Z,1.20
2023-01-19T07:22:14.673Z,1.30
2023-01-19T07:24:42.159Z,1.30
2023-01-19T07:27:11.647Z,1.30
2023-01-19T07:29:39.452Z,1.30
2023-01-19T07:32:07.697Z,1.40
2023-01-19T07:34:35.102Z,1.40
2023-01-19T07:37:02.790Z,1.40
2023-01-19T07:39:32.113Z,1.30
2023-01-19T07:41:59.698Z,1.30
2023-01-19T07:44:27.401Z,1.40
2023-01-19T07:46:54.920Z,1.40
2023-01-19T07:49:22.480Z,1.40
2023-01-19T07:51:50.015Z,1.50
2023-01-19T07:54:17.780Z,1.40
2023-01-19T07:56:45.305Z,1.40
2023-01-19T07:59:12.851Z,1.40
2023-01-19T08:01:40.529Z,1.40
2023-01-19T08:04:08.126Z,1.40
2023-01-19T08:06:37.799Z,1.50
2023-01-19T08:09:07.232Z,1.50
2023-01-19T08:11:34.707Z,1.50
2023-01-19T08:14:02.686Z,1.50
2023-01-19T08:16:30.044Z,1.50
2023-01-19T08:18:57.555Z,1.50
2023-01-19T08:21:25.027Z,1.60
2023-01-19T08:23:57.502Z,1.60
2023-01-19T08:26:31.583Z,1.60
2023-01-19T08:29:01.811Z,1.60
2023-01-19T08:31:29.928Z,1.60
2023-01-19T08:33:57.780Z,1.50
2023-01-19T08:36:25.456Z,1.60
2023-01-19T08:38:52.972Z,1.60
2023-01-19T08:41:20.902Z,1.60
2023-01-19T08:43:49.114Z,1.60
2023-01-19T08:46:17.756Z,1.60
2023-01-19T08:48:48.227Z,1.70
2023-01-19T08:51:17.114Z,1.70
2023-01-19T08:53:44.828Z,1.60
2023-01-19T08:56:14.071Z,1.70
2023-01-19T08:58:45.741Z,1.70
2023-01-19T09:01:15.305Z,1.70
2023-01-19T09:03:44.139Z,1.70
2023-01-19T09:06:15.093Z,1.80
2023-01-19T09:08:43.067Z,1.70
2023-01-19T09:11:12.501Z,1.70
2023-01-19T09:13:41.732Z,1.70
2023-01-19T09:16:11.705Z,1.70
2023-01-19T09:18:39.777Z,1.70
2023-01-19T09:21:08.476Z,1.80
2023-01-19T09:23:36.126Z,1.80
2023-01-19T09:26:05.332Z,1.80
2023-01-19T09:28:33.052Z,1.80
2023-01-19T09:31:04.421Z,1.80
2023-01-19T09:33:32.433Z,1.90
2023-01-19T09:35:59.704Z,1.90
2023-01-19T09:38:31.640Z,1.90
2023-01-19T09:41:00.121Z,1.90
2023-01-19T09:43:29.646Z,1.90
2023-01-19T09:46:02.910Z,2.00
2023-01-19T09:48:48.351Z,2.10
2023-01-19T09:51:23.187Z,2.10
2023-01-19T09:53:52.949Z,2.10
2023-01-19T09:56:21.124Z,2.10
2023-01-19T09:58:51.173Z,2.10
2023-01-19T10:01:54.251Z,2.20
2023-01-19T10:04:28.895Z,2.20
2023-01-19T10:07:07.036Z,2.20
2023-01-19T10:09:39.512Z,2.30
2023-01-19T10:12:22.496Z,2.30
2023-01-19T10:15:03.800Z,2.30
2023-01-19T10:17:47.297Z,2.40
2023-01-19T10:20:23.258Z,2.40
2023-01-19T10:22:51.142Z,2.40
2023-01-19T10:25:23.903Z,2.30
2023-01-19T10:27:51.790Z,2.30
2023-01-19T10:30:24.325Z,2.30
2023-01-19T10:32:52.796Z,2.30
2023-01-19T10:35:24.621Z,2.30
2023-01-19T10:37:57.167Z,2.30
2023-01-19T10:40:28.622Z,2.30
2023-01-19T10:42:57.464Z,2.30
2023-01-19T10:45:29.602Z,2.20
2023-01-19T10:48:04.907Z,2.20
2023-01-19T10:50:35.111Z,2.30
2023-01-19T10:53:06.048Z,2.30
2023-01-19T10:55:38.516Z,2.30
2023-01-19T10:58:07.655Z,2.30
2023-01-19T11:00:40.165Z,2.40
2023-01-19T11:03:25.315Z,2.40
2023-01-19T11:05:52.979Z,2.30
2023-01-19T11:08:35.861Z,2.30
2023-01-19T11:11:05.478Z,2.30
2023-01-19T11:13:33.020Z,2.30
2023-01-19T11:16:16.928Z,2.20
2023-01-19T11:18:46.006Z,2.20
2023-01-19T11:21:16.760Z,2.20
2023-01-19T11:23:51.572Z,2.20
2023-01-19T11:26:38.969Z,2.10
2023-01-19T11:29:07.051Z,2.20
2023-01-19T11:31:36.688Z,2.20
2023-01-19T11:34:22.524Z,2.20
2023-01-19T11:36:59.766Z,2.30
2023-01-19T11:39:29.901Z,2.30
2023-01-19T11:42:02.423Z,2.30
2023-01-19T11:44:32.576Z,2.30
2023-01-19T11:47:04.652Z,2.30
2023-01-19T11:49:55.446Z,2.30
2023-01-19T11:52:29.222Z,2.30
2023-01-19T11:55:06.162Z,2.30
2023-01-19T11:57:33.677Z,2.30
2023-01-19T12:00:05.355Z,2.30
2023-01-19T12:02:45.063Z,2.30
2023-01-19T12:05:17.226Z,2.30
2023-01-19T12:07:47.805Z,2.30
2023-01-19T12:10:23.047Z,2.30
2023-01-19T12:12:51.502Z,2.30
2023-01-19T12:15:25.026Z,2.30
2023-01-19T12:17:58.647Z,2.30
2023-01-19T12:20:32.398Z,2.30
2023-01-19T12:23:19.609Z,2.20
2023-01-19T12:26:07.072Z,2.30
2023-01-19T12:28:40.923Z,2.30
2023-01-19T12:31:09.988Z,2.40
2023-01-19T12:33:40.139Z,2.50
2023-01-19T12:36:33.306Z,2.60
2023-01-19T12:39:06.013Z,2.80
2023-01-19T12:41:42.701Z,2.90
2023-01-19T12:44:11.326Z,3.00
2023-01-19T12:46:39.632Z,3.10
2023-01-19T12:49:31.364Z,3.10
2023-01-19T12:52:31.009Z,3.00
2023-01-19T12:55:21.825Z,2.90
2023-01-19T12:57:50.384Z,2.70
2023-01-19T13:00:25.013Z,2.60
2023-01-19T13:02:54.090Z,2.50
2023-01-19T13:05:42.337Z,2.50
2023-01-19T13:08:09.828Z,2.40
2023-01-19T13:11:06.050Z,2.40
2023-01-19T13:13:40.115Z,2.40
2023-01-19T13:16:25.097Z,2.40
2023-01-19T13:19:07.955Z,2.40
2023-01-19T13:21:36.589Z,2.30
2023-01-19T13:24:07.352Z,2.30
2023-01-19T13:26:38.734Z,2.40
2023-01-19T13:29:13.854Z,2.40
2023-01-19T13:31:44.747Z,2.40
2023-01-19T13:34:16.655Z,2.50
2023-01-19T13:36:48.095Z,2.50
2023-01-19T13:39:28.120Z,2.50
2023-01-19T13:41:58.060Z,2.50
2023-01-19T13:44:30.736Z,2.50
2023-01-19T13:46:59.950Z,2.50
2023-01-19T13:49:48.825Z,2.50
2023-01-19T13:52:22.914Z,2.40
2023-01-19T13:54:56.208Z,2.30
2023-01-19T13:57:27.492Z,2.20
2023-01-19T14:00:12.386Z,2.20
2023-01-19T14:02:41.972Z,2.30
2023-01-19T14:05:34.384Z,2.20
2023-01-19T14:08:11.671Z,2.20
2023-01-19T14:10:40.973Z,2.20
2023-01-19T14:13:18.466Z,2.30
2023-01-19T14:15:47.438Z,2.20
2023-01-19T14:18:18.607Z,2.30
2023-01-19T14:21:08.668Z,2.30
2023-01-19T14:23:40.736Z,2.30
2023-01-19T14:26:48.109Z,2.40
2023-01-19T14:29:22.287Z,2.40
2023-01-19T14:32:01.005Z,2.40
2023-01-19T14:34:33.400Z,2.40
2023-01-19T14:37:02.716Z,2.40
2023-01-19T14:39:34.532Z,2.40
2023-01-19T14:42:05.010Z,2.40
2023-01-19T14:44:36.285Z,2.30
2023-01-19T14:47:05.139Z,2.30
2023-01-19T14:49:34.203Z,2.30
2023-01-19T14:52:05.056Z,2.20
2023-01-19T14:54:38.512Z,2.20
2023-01-19T14:57:11.001Z,2.20
2023-01-19T14:59:39.107Z,2.20
2023-01-19T15:02:06.903Z,2.10
2023-01-19T15:04:34.497Z,2.10
2023-01-19T15:07:01.654Z,2.00
2023-01-19T15:09:29.418Z,2.00
2023-01-19T15:11:57.149Z,1.90
2023-01-19T15:14:25.033Z,1.90
2023-01-19T15:16:52.708Z,1.90
2023-01-19T15:19:19.989Z,1.80
2023-01-19T15:21:47.521Z,1.80
2023-01-19T15:24:17.679Z,1.80
2023-01-19T15:26:45.916Z,1.70
2023-01-19T15:29:23.345Z,1.70
2023-01-19T15:31:51.460Z,1.60
2023-01-19T15:34:19.564Z,1.60
2023-01-19T15:36:46.959Z,1.60
2023-01-19T15:39:14.515Z,1.60
2023-01-19T15:41:42.963Z,1.60
2023-01-19T15:44:11.405Z,1.60
2023-01-19T15:46:39.454Z,1.60
2023-01-19T15:49:06.714Z,1.60
2023-01-19T15:51:34.394Z,1.60
2023-01-19T15:54:02.233Z,1.50
2023-01-19T15:56:31.768Z,1.50
2023-01-19T15:59:00.039Z,1.40
2023-01-19T16:01:33.295Z,1.30
2023-01-19T16:04:04.361Z,1.30
2023-01-19T16:06:34.253Z,1.20
2023-01-19T16:09:02.083Z,1.10
2023-01-19T16:11:32.210Z,1.10
2023-01-19T16:14:00.181Z,1.10
2023-01-19T16:16:28.713Z,1.10
2023-01-19T16:18:57.115Z,1.00
2023-01-19T16:21:25.077Z,1.00
2023-01-19T16:23:52.979Z,0.90
2023-01-19T16:26:36.897Z,0.80
2023-01-19T16:29:09.199Z,0.80
2023-01-19T16:31:38.058Z,0.70
2023-01-19T16:34:06.062Z,0.60
2023-01-19T16:36:35.491Z,0.60
2023-01-19T16:39:06.078Z,0.50
2023-01-19T16:41:34.951Z,0.50
2023-01-19T16:44:02.976Z,0.40
2023-01-19T16:46:35.368Z,0.50
2023-01-19T16:49:06.189Z,0.50
2023-01-19T16:51:34.017Z,0.50
2023-01-19T16:54:01.648Z,0.50
2023-01-19T16:56:29.462Z,0.60
2023-01-19T16:58:58.954Z,0.70
2023-01-19T17:01:29.157Z,0.70
2023-01-19T17:03:56.974Z,0.80
2023-01-19T17:06:25.578Z,0.80
2023-01-19T17:08:54.124Z,0.90
2023-01-19T17:11:24.615Z,0.90
2023-01-19T17:13:55.633Z,0.90
2023-01-19T17:16:25.035Z,0.90
2023-01-19T17:18:53.265Z,0.90
2023-01-19T17:21:21.195Z,0.90
2023-01-19T17:23:52.856Z,0.90
2023-01-19T17:26:22.439Z,0.90
2023-01-19T17:28:50.357Z,0.90
2023-01-19T17:31:22.499Z,0.80
2023-01-19T17:33:51.547Z,0.90
2023-01-19T17:36:22.943Z,0.80
2023-01-19T17:38:52.527Z,0.80
2023-01-19T17:41:24.668Z,0.80
2023-01-19T17:43:52.834Z,0.80
2023-01-19T17:46:22.980Z,0.80
2023-01-19T17:48:53.137Z,0.70
2023-01-19T17:51:22.908Z,0.70
2023-01-19T17:53:51.226Z,0.70
2023-01-19T17:56:22.172Z,0.80
2023-01-19T17:58:50.417Z,0.80
2023-01-19T18:01:21.044Z,0.80
2023-01-19T18:03:49.517Z,0.80
2023-01-19T18:06:17.400Z,0.80
2023-01-19T18:08:48.907Z,0.80
2023-01-19T18:11:18.430Z,0.70
2023-01-19T18:13:46.972Z,0.70
2023-01-19T18:16:17.170Z,0.70
2023-01-19T18:18:44.687Z,0.80
2023-01-19T18:21:14.244Z,0.70
2023-01-19T18:23:46.142Z,0.70
2023-01-19T18:26:17.107Z,0.70
2023-01-19T18:28:44.978Z,0.80
2023-01-19T18:31:14.596Z,0.70
2023-01-19T18:33:42.619Z,0.70
2023-01-19T18:36:10.479Z,0.70
2023-01-19T18:38:39.841Z,0.60
2023-01-19T18:41:11.161Z,0.70
2023-01-19T18:43:39.259Z,0.70
2023-01-19T18:46:07.466Z,0.70
2023-01-19T18:48:35.730Z,0.70
2023-01-19T18:51:08.196Z,0.60
2023-01-19T18:53:35.781Z,0.70
2023-01-19T18:56:03.958Z,0.70
2023-01-19T18:58:32.789Z,0.70
2023-01-19T19:01:01.881Z,0.80
2023-01-19T19:03:30.117Z,0.80
2023-01-19T19:06:02.130Z,0.80
2023-01-19T19:08:29.877Z,0.80
2023-01-19T19:10:57.247Z,0.80
2023-01-19T19:13:25.613Z,0.70
2023-01-19T19:15:55.479Z,0.70
2023-01-19T19:18:22.766Z,0.70
2023-01-19T19:20:50.137Z,0.70
2023-01-19T19:23:17.393Z,0.70
2023-01-19T19:25:44.607Z,0.60
2023-01-19T19:28:12.035Z,0.60
2023-01-19T19:30:39.492Z,0.70
2023-01-19T19:33:07.889Z,0.60
2023-01-19T19:35:35.119Z,0.60
2023-01-19T19:38:02.372Z,0.60
2023-01-19T19:40:29.808Z,0.60
2023-01-19T19:42:58.793Z,0.60
2023-01-19T19:45:26.395Z,0.60
2023-01-19T19:47:53.595Z,0.60
2023-01-19T19:50:20.875Z,0.60
2023-01-19T19:52:48.222Z,0.70
2023-01-19T19:55:15.618Z,0.70
2023-01-19T19:57:42.914Z,0.70
2023-01-19T20:00:11.468Z,0.60
2023-01-19T20:02:39.488Z,0.60
2023-01-19T20:05:07.653Z,0.70
2023-01-19T20:07:35.865Z,0.70
2023-01-19T20:10:03.364Z,0.70
2023-01-19T20:12:31.019Z,0.70
2023-01-19T20:14:58.763Z,0.70
2023-01-19T20:17:26.580Z,0.70
2023-01-19T20:19:54.629Z,0.70
2023-01-19T20:22:22.858Z,0.70
2023-01-19T20:24:51.762Z,0.70
2023-01-19T20:27:19.729Z,0.70
2023-01-19T20:29:51.916Z,0.70
2023-01-19T20:32:19.827Z,0.70
2023-01-19T20:34:47.875Z,0.60
2023-01-19T20:37:15.507Z,0.60
2023-01-19T20:39:43.310Z,0.60
2023-01-19T20:42:11.891Z,0.60
2023-01-19T20:44:40.569Z,0.60
2023-01-19T20:47:09.637Z,0.60
2023-01-19T20:49:38.177Z,0.60
2023-01-19T20:52:05.944Z,0.60
2023-01-19T20:54:34.029Z,0.60
2023-01-19T20:57:01.467Z,0.60
2023-01-19T20:59:28.883Z,0.70
2023-01-19T21:01:56.681Z,0.70
2023-01-19T21:04:24.109Z,0.70
2023-01-19T21:06:51.761Z,0.60
2023-01-19T21:09:19.818Z,0.70
2023-01-19T21:11:47.779Z,0.70
2023-01-19T21:14:15.523Z,0.70
2023-01-19T21:16:43.735Z,0.60
2023-01-19T21:19:13.816Z,0.70
2023-01-19T21:21:41.653Z,0.70
2023-01-19T21:24:10.330Z,0.70
2023-01-19T21:26:38.037Z,0.70
2023-01-19T21:29:05.707Z,0.80
2023-01-19T21:31:33.666Z,0.80
2023-01-19T21:34:01.076Z,0.70
2023-01-19T21:36:28.952Z,0.80
2023-01-19T21:39:01.077Z,0.80
2023-01-19T21:41:30.136Z,0.80
2023-01-19T21:43:58.719Z,0.80
2023-01-19T21:46:29.557Z,0.80
2023-01-19T21:48:59.845Z,0.70
2023-01-19T21:51:28.782Z,0.70
2023-01-19T21:53:59.816Z,0.60
2023-01-19T21:56:28.624Z,0.60
2023-01-19T21:58:57.128Z,0.50
2023-01-19T22:01:24.787Z,0.50
2023-01-19T22:03:57.477Z,0.50
2023-01-19T22:06:26.591Z,0.60
2023-01-19T22:08:54.740Z,0.60
2023-01-19T22:11:22.512Z,0.60
2023-01-19T22:13:51.223Z,0.60
2023-01-19T22:16:21.158Z,0.60
2023-01-19T22:18:54.163Z,0.60
2023-01-19T22:21:24.561Z,0.60
2023-01-19T22:23:56.849Z,0.60
2023-01-19T22:26:24.607Z,0.60
2023-01-19T22:28:56.962Z,0.60
2023-01-19T22:31:26.240Z,0.70
2023-01-19T22:33:54.563Z,0.70
2023-01-19T22:36:27.676Z,0.70
2023-01-19T22:38:57.700Z,0.70
2023-01-19T22:41:26.387Z,0.70
2023-01-19T22:43:58.503Z,0.70
2023-01-19T22:46:28.572Z,0.60
2023-01-19T22:48:56.681Z,0.70
2023-01-19T22:51:25.664Z,0.70
2023-01-19T22:53:53.527Z,0.60
2023-01-19T22:56:23.762Z,0.60
2023-01-19T22:58:51.812Z,0.50
2023-01-19T23:01:22.521Z,0.40
2023-01-19T23:03:50.775Z,0.40
2023-01-19T23:06:21.798Z,0.40
2023-01-19T23:08:49.923Z,0.30
2023-01-19T23:11:20.934Z,0.30
2023-01-19T23:13:49.016Z,0.20
2023-01-19T23:16:16.657Z,0.20
2023-01-19T23:18:44.875Z,0.20
2023-01-19T23:21:18.528Z,0.20
2023-01-19T23:23:46.868Z,0.20
2023-01-19T23:26:17.767Z,0.20
2023-01-19T23:28:46.607Z,0.20
2023-01-19T23:31:22.805Z,0.30
2023-01-19T23:33:52.818Z,0.30
2023-01-19T23:36:21.213Z,0.30
2023-01-19T23:38:51.175Z,0.30
2023-01-19T23:41:19.468Z,0.30
2023-01-19T23:43:47.106Z,0.30
2023-01-19T23:46:16.463Z,0.30
2023-01-19T23:48:43.823Z,0.30
2023-01-19T23:51:15.080Z,0.20
2023-01-19T23:53:43.086Z,0.20
2023-01-19T23:56:10.445Z,0.20
2023-01-19T23:58:38.001Z,0.20
